sensor_id;sensor_type;location;lat;lon;timestamp;pressure;altitude;pressure_sealevel;temperature;humidity
25869;BME280;13688;53.154;18.136;2023-07-29T00:04:23;100217.94;;;14.03;100.00
25869;BME280;13688;53.154;18.136;2023-07-29T00:09:45;100220.42;;;13.69;100.00
25869;BME280;13688;53.154;18.136;2023-07-29T00:15:08;100220.46;;;13.41;100.00
25869;BME280;13688;53.154;18.136;2023-07-29T00:20:31;100218.55;;;13.24;100.00
25869;BME280;13688;53.154;18.136;2023-07-29T00:25:54;100224.48;;;13.18;100.00
25869;BME280;13688;53.154;18.136;2023-07-29T00:31:16;100220.70;;;13.01;100.00
25869;BME280;13688;53.154;18.136;2023-07-29T00:36:39;100229.13;;;12.88;100.00
25869;BME280;13688;53.154;18.136;2023-07-29T00:42:01;100219.23;;;12.70;100.00
25869;BME280;13688;53.154;18.136;2023-07-29T00:47:26;100233.44;;;12.62;100.00
25869;BME280;13688;53.154;18.136;2023-07-29T00:52:49;100233.45;;;12.52;100.00
25869;BME280;13688;53.154;18.136;2023-07-29T00:58:12;100250.34;;;12.45;100.00
25869;BME280;13688;53.154;18.136;2023-07-29T01:03:35;100239.30;;;12.38;100.00
25869;BME280;13688;53.154;18.136;2023-07-29T01:09:03;100231.47;;;12.35;100.00
25869;BME280;13688;53.154;18.136;2023-07-29T01:14:28;100233.46;;;12.33;100.00
25869;BME280;13688;53.154;18.136;2023-07-29T01:20:08;100240.30;;;12.18;100.00
25869;BME280;13688;53.154;18.136;2023-07-29T01:25:32;100240.83;;;12.02;100.00
25869;BME280;13688;53.154;18.136;2023-07-29T01:31:01;100231.61;;;12.04;100.00
25869;BME280;13688;53.154;18.136;2023-07-29T01:36:31;100218.43;;;12.01;100.00
25869;BME280;13688;53.154;18.136;2023-07-29T01:41:56;100220.27;;;11.91;100.00
25869;BME280;13688;53.154;18.136;2023-07-29T01:47:20;100208.88;;;11.78;100.00
25869;BME280;13688;53.154;18.136;2023-07-29T01:52:43;100218.36;;;11.72;100.00
25869;BME280;13688;53.154;18.136;2023-07-29T01:58:05;100225.42;;;11.64;100.00
25869;BME280;13688;53.154;18.136;2023-07-29T02:03:28;100222.16;;;11.60;100.00
25869;BME280;13688;53.154;18.136;2023-07-29T02:08:51;100233.19;;;11.57;100.00
25869;BME280;13688;53.154;18.136;2023-07-29T02:14:14;100236.73;;;11.58;100.00
25869;BME280;13688;53.154;18.136;2023-07-29T02:19:36;100240.39;;;11.47;100.00
25869;BME280;13688;53.154;18.136;2023-07-29T02:24:59;100243.64;;;11.41;100.00
25869;BME280;13688;53.154;18.136;2023-07-29T02:30:21;100244.59;;;11.30;100.00
25869;BME280;13688;53.154;18.136;2023-07-29T02:35:43;100245.98;;;11.25;100.00
25869;BME280;13688;53.154;18.136;2023-07-29T02:41:07;100237.20;;;11.23;100.00
25869;BME280;13688;53.154;18.136;2023-07-29T02:46:29;100246.69;;;11.27;100.00
25869;BME280;13688;53.154;18.136;2023-07-29T02:51:52;100244.84;;;11.27;100.00
25869;BME280;13688;53.154;18.136;2023-07-29T02:57:14;100245.61;;;11.08;100.00
25869;BME280;13688;53.154;18.136;2023-07-29T03:02:37;100251.49;;;10.93;100.00
25869;BME280;13688;53.154;18.136;2023-07-29T03:07:59;100258.02;;;11.00;100.00
25869;BME280;13688;53.154;18.136;2023-07-29T03:13:23;100271.23;;;11.03;100.00
25869;BME280;13688;53.154;18.136;2023-07-29T03:18:46;100282.70;;;11.05;100.00
25869;BME280;13688;53.154;18.136;2023-07-29T03:24:10;100272.84;;;11.15;100.00
25869;BME280;13688;53.154;18.136;2023-07-29T03:29:33;100270.48;;;11.22;100.00
25869;BME280;13688;53.154;18.136;2023-07-29T03:34:55;100261.65;;;11.10;100.00
25869;BME280;13688;53.154;18.136;2023-07-29T03:40:18;100280.86;;;11.05;100.00
25869;BME280;13688;53.154;18.136;2023-07-29T03:45:42;100280.53;;;10.99;100.00
25869;BME280;13688;53.154;18.136;2023-07-29T03:51:05;100274.30;;;10.98;100.00
25869;BME280;13688;53.154;18.136;2023-07-29T03:56:27;100273.97;;;11.12;100.00
25869;BME280;13688;53.154;18.136;2023-07-29T04:01:51;100268.36;;;11.25;100.00
25869;BME280;13688;53.154;18.136;2023-07-29T04:07:14;100274.36;;;11.38;100.00
25869;BME280;13688;53.154;18.136;2023-07-29T04:12:36;100286.30;;;11.45;100.00
25869;BME280;13688;53.154;18.136;2023-07-29T04:17:59;100274.17;;;11.61;100.00
25869;BME280;13688;53.154;18.136;2023-07-29T04:23:21;100289.29;;;11.83;100.00
25869;BME280;13688;53.154;18.136;2023-07-29T04:28:45;100288.03;;;11.96;100.00
25869;BME280;13688;53.154;18.136;2023-07-29T04:34:08;100297.44;;;12.12;100.00
25869;BME280;13688;53.154;18.136;2023-07-29T04:39:30;100296.91;;;12.27;100.00
25869;BME280;13688;53.154;18.136;2023-07-29T04:44:53;100299.17;;;12.51;100.00
25869;BME280;13688;53.154;18.136;2023-07-29T04:50:17;100309.95;;;12.71;100.00
25869;BME280;13688;53.154;18.136;2023-07-29T04:55:41;100311.23;;;12.86;100.00
25869;BME280;13688;53.154;18.136;2023-07-29T05:01:03;100310.06;;;12.98;100.00
25869;BME280;13688;53.154;18.136;2023-07-29T05:06:26;100318.27;;;13.16;100.00
25869;BME280;13688;53.154;18.136;2023-07-29T05:11:49;100310.85;;;13.37;100.00
25869;BME280;13688;53.154;18.136;2023-07-29T05:17:11;100316.61;;;13.62;100.00
25869;BME280;13688;53.154;18.136;2023-07-29T05:22:34;100321.50;;;13.76;100.00
25869;BME280;13688;53.154;18.136;2023-07-29T05:27:56;100310.05;;;13.92;100.00
25869;BME280;13688;53.154;18.136;2023-07-29T05:33:19;100311.64;;;14.12;100.00
25869;BME280;13688;53.154;18.136;2023-07-29T05:38:42;100316.60;;;14.35;100.00
25869;BME280;13688;53.154;18.136;2023-07-29T05:44:06;100320.12;;;14.63;100.00
25869;BME280;13688;53.154;18.136;2023-07-29T05:49:28;100311.81;;;15.00;100.00
25869;BME280;13688;53.154;18.136;2023-07-29T05:54:50;100308.38;;;15.15;100.00
25869;BME280;13688;53.154;18.136;2023-07-29T06:00:14;100315.28;;;15.36;100.00
25869;BME280;13688;53.154;18.136;2023-07-29T06:05:36;100312.73;;;15.60;100.00
25869;BME280;13688;53.154;18.136;2023-07-29T06:11:00;100319.80;;;15.87;100.00
25869;BME280;13688;53.154;18.136;2023-07-29T06:16:23;100307.87;;;16.14;100.00
25869;BME280;13688;53.154;18.136;2023-07-29T06:21:46;100311.48;;;16.31;100.00
25869;BME280;13688;53.154;18.136;2023-07-29T06:27:12;100320.50;;;16.56;100.00
25869;BME280;13688;53.154;18.136;2023-07-29T06:32:35;100316.83;;;16.81;100.00
25869;BME280;13688;53.154;18.136;2023-07-29T06:37:58;100304.78;;;17.08;100.00
25869;BME280;13688;53.154;18.136;2023-07-29T06:43:21;100302.00;;;17.33;100.00
25869;BME280;13688;53.154;18.136;2023-07-29T06:48:44;100308.08;;;17.51;100.00
25869;BME280;13688;53.154;18.136;2023-07-29T06:54:07;100312.29;;;17.62;100.00
25869;BME280;13688;53.154;18.136;2023-07-29T06:59:29;100311.73;;;17.83;100.00
25869;BME280;13688;53.154;18.136;2023-07-29T07:04:52;100307.05;;;18.08;100.00
25869;BME280;13688;53.154;18.136;2023-07-29T07:10:15;100302.00;;;18.27;100.00
25869;BME280;13688;53.154;18.136;2023-07-29T07:15:37;100297.13;;;18.46;100.00
25869;BME280;13688;53.154;18.136;2023-07-29T07:21:00;100294.42;;;18.69;100.00
25869;BME280;13688;53.154;18.136;2023-07-29T07:26:22;100294.17;;;18.78;100.00
25869;BME280;13688;53.154;18.136;2023-07-29T07:31:54;100302.50;;;19.00;100.00
25869;BME280;13688;53.154;18.136;2023-07-29T07:37:10;100300.02;;;19.28;100.00
25869;BME280;13688;53.154;18.136;2023-07-29T07:42:32;100288.87;;;19.52;100.00
25869;BME280;13688;53.154;18.136;2023-07-29T07:47:55;100287.13;;;19.59;100.00
25869;BME280;13688;53.154;18.136;2023-07-29T07:53:20;100285.11;;;19.68;100.00
25869;BME280;13688;53.154;18.136;2023-07-29T07:58:42;100278.67;;;20.05;100.00
25869;BME280;13688;53.154;18.136;2023-07-29T08:04:06;100273.53;;;20.32;100.00
25869;BME280;13688;53.154;18.136;2023-07-29T08:09:28;100277.27;;;20.45;100.00
25869;BME280;13688;53.154;18.136;2023-07-29T08:14:53;100280.67;;;20.69;100.00
25869;BME280;13688;53.154;18.136;2023-07-29T08:20:34;100261.17;;;21.00;100.00
25869;BME280;13688;53.154;18.136;2023-07-29T08:25:58;100255.65;;;21.21;100.00
25869;BME280;13688;53.154;18.136;2023-07-29T08:31:22;100261.64;;;21.31;97.47
25869;BME280;13688;53.154;18.136;2023-07-29T08:36:44;100249.50;;;21.40;96.14
25869;BME280;13688;53.154;18.136;2023-07-29T08:42:08;100253.60;;;21.58;94.59
25869;BME280;13688;53.154;18.136;2023-07-29T08:48:00;100243.05;;;21.96;91.95
25869;BME280;13688;53.154;18.136;2023-07-29T08:53:25;100236.22;;;22.20;90.11
25869;BME280;13688;53.154;18.136;2023-07-29T08:58:50;100227.19;;;22.46;90.09
25869;BME280;13688;53.154;18.136;2023-07-29T09:04:15;100237.75;;;22.62;86.87
25869;BME280;13688;53.154;18.136;2023-07-29T09:09:39;100229.10;;;22.65;84.73
25869;BME280;13688;53.154;18.136;2023-07-29T09:15:02;100220.25;;;22.63;84.32
25869;BME280;13688;53.154;18.136;2023-07-29T09:20:31;100225.73;;;22.76;82.94
25869;BME280;13688;53.154;18.136;2023-07-29T09:26:02;100222.82;;;22.91;79.76
25869;BME280;13688;53.154;18.136;2023-07-29T09:31:30;100224.45;;;23.25;80.26
25869;BME280;13688;53.154;18.136;2023-07-29T09:36:56;100214.70;;;23.49;76.26
25869;BME280;13688;53.154;18.136;2023-07-29T09:42:25;100219.13;;;23.50;72.68
25869;BME280;13688;53.154;18.136;2023-07-29T09:47:52;100221.84;;;23.63;70.40
25869;BME280;13688;53.154;18.136;2023-07-29T09:53:26;100213.66;;;24.02;69.41
25869;BME280;13688;53.154;18.136;2023-07-29T09:58:56;100208.77;;;23.65;68.54
25869;BME280;13688;53.154;18.136;2023-07-29T10:04:23;100209.39;;;23.67;70.13
25869;BME280;13688;53.154;18.136;2023-07-29T10:09:47;100194.88;;;23.98;71.82
25869;BME280;13688;53.154;18.136;2023-07-29T10:15:12;100198.44;;;24.06;70.36
25869;BME280;13688;53.154;18.136;2023-07-29T10:20:36;100186.07;;;23.83;68.92
25869;BME280;13688;53.154;18.136;2023-07-29T10:26:09;100180.64;;;24.15;72.14
25869;BME280;13688;53.154;18.136;2023-07-29T10:31:34;100181.94;;;24.69;68.08
25869;BME280;13688;53.154;18.136;2023-07-29T10:37:00;100181.38;;;24.85;65.27
25869;BME280;13688;53.154;18.136;2023-07-29T10:42:24;100172.67;;;24.88;66.12
25869;BME280;13688;53.154;18.136;2023-07-29T10:47:46;100167.84;;;25.08;65.36
25869;BME280;13688;53.154;18.136;2023-07-29T10:53:10;100172.69;;;25.50;63.53
25869;BME280;13688;53.154;18.136;2023-07-29T10:58:35;100170.01;;;25.43;64.55
25869;BME280;13688;53.154;18.136;2023-07-29T11:09:58;100163.80;;;25.48;60.72
25869;BME280;13688;53.154;18.136;2023-07-29T11:15:29;100138.13;;;25.17;64.41
25869;BME280;13688;53.154;18.136;2023-07-29T11:20:53;100139.20;;;25.34;60.99
25869;BME280;13688;53.154;18.136;2023-07-29T11:26:16;100133.14;;;26.22;58.52
25869;BME280;13688;53.154;18.136;2023-07-29T11:31:46;100130.38;;;26.64;54.66
25869;BME280;13688;53.154;18.136;2023-07-29T11:37:16;100116.93;;;26.79;55.81
25869;BME280;13688;53.154;18.136;2023-07-29T11:42:39;100108.59;;;27.38;53.54
25869;BME280;13688;53.154;18.136;2023-07-29T11:48:03;100101.55;;;27.99;50.05
25869;BME280;13688;53.154;18.136;2023-07-29T11:53:27;100088.48;;;27.66;51.88
25869;BME280;13688;53.154;18.136;2023-07-29T11:58:50;100082.56;;;28.19;51.67
25869;BME280;13688;53.154;18.136;2023-07-29T12:04:13;100082.16;;;28.44;48.86
25869;BME280;13688;53.154;18.136;2023-07-29T12:09:37;100072.86;;;27.72;52.01
25869;BME280;13688;53.154;18.136;2023-07-29T12:15:01;100062.41;;;27.33;53.39
25869;BME280;13688;53.154;18.136;2023-07-29T12:20:28;100062.31;;;27.57;52.64
25869;BME280;13688;53.154;18.136;2023-07-29T12:25:56;100055.17;;;27.04;54.30
25869;BME280;13688;53.154;18.136;2023-07-29T12:31:16;100044.37;;;26.79;55.26
25869;BME280;13688;53.154;18.136;2023-07-29T12:36:49;100036.44;;;26.24;57.72
25869;BME280;13688;53.154;18.136;2023-07-29T12:42:13;100036.18;;;26.02;59.45
25869;BME280;13688;53.154;18.136;2023-07-29T12:47:36;100025.26;;;25.95;59.50
25869;BME280;13688;53.154;18.136;2023-07-29T12:52:58;100019.45;;;26.62;59.22
25869;BME280;13688;53.154;18.136;2023-07-29T12:58:21;100005.33;;;27.22;56.83
25869;BME280;13688;53.154;18.136;2023-07-29T13:03:44;100007.08;;;28.02;53.13
25869;BME280;13688;53.154;18.136;2023-07-29T13:09:07;99999.30;;;27.99;52.08
25869;BME280;13688;53.154;18.136;2023-07-29T13:14:29;100000.31;;;27.64;54.35
25869;BME280;13688;53.154;18.136;2023-07-29T13:19:52;99990.14;;;28.15;53.39
25869;BME280;13688;53.154;18.136;2023-07-29T13:25:15;99969.57;;;28.62;51.08
25869;BME280;13688;53.154;18.136;2023-07-29T13:30:37;99972.95;;;29.07;50.86
25869;BME280;13688;53.154;18.136;2023-07-29T13:36:01;99976.02;;;28.29;50.92
25869;BME280;13688;53.154;18.136;2023-07-29T13:41:24;99972.73;;;28.70;53.11
25869;BME280;13688;53.154;18.136;2023-07-29T13:46:47;99964.58;;;29.02;48.97
25869;BME280;13688;53.154;18.136;2023-07-29T13:52:10;99957.98;;;28.65;51.44
25869;BME280;13688;53.154;18.136;2023-07-29T13:57:33;99944.80;;;28.72;49.83
25869;BME280;13688;53.154;18.136;2023-07-29T14:02:59;99936.16;;;27.74;53.76
25869;BME280;13688;53.154;18.136;2023-07-29T14:08:22;99923.25;;;28.52;52.34
25869;BME280;13688;53.154;18.136;2023-07-29T14:13:45;99919.03;;;29.42;48.85
25869;BME280;13688;53.154;18.136;2023-07-29T14:19:08;99913.04;;;30.19;46.28
25869;BME280;13688;53.154;18.136;2023-07-29T14:24:30;99893.78;;;30.45;45.96
25869;BME280;13688;53.154;18.136;2023-07-29T14:29:53;99886.53;;;31.12;44.17
25869;BME280;13688;53.154;18.136;2023-07-29T14:35:17;99883.07;;;30.11;45.67
25869;BME280;13688;53.154;18.136;2023-07-29T14:40:39;99867.80;;;30.66;45.56
25869;BME280;13688;53.154;18.136;2023-07-29T14:46:05;99859.38;;;29.99;45.97
25869;BME280;13688;53.154;18.136;2023-07-29T14:51:28;99842.19;;;29.97;46.13
25869;BME280;13688;53.154;18.136;2023-07-29T14:56:51;99830.14;;;29.12;48.38
25869;BME280;13688;53.154;18.136;2023-07-29T15:02:14;99836.58;;;28.24;51.52
25869;BME280;13688;53.154;18.136;2023-07-29T15:07:37;99834.19;;;27.89;53.08
25869;BME280;13688;53.154;18.136;2023-07-29T15:13:00;99825.83;;;27.68;54.25
25869;BME280;13688;53.154;18.136;2023-07-29T15:18:25;99817.62;;;27.56;54.01
25869;BME280;13688;53.154;18.136;2023-07-29T15:23:48;99820.81;;;27.14;57.14
25869;BME280;13688;53.154;18.136;2023-07-29T15:29:11;99808.84;;;26.80;58.45
25869;BME280;13688;53.154;18.136;2023-07-29T15:34:34;99812.75;;;26.27;60.13
25869;BME280;13688;53.154;18.136;2023-07-29T15:39:57;99799.38;;;25.95;62.44
25869;BME280;13688;53.154;18.136;2023-07-29T15:45:20;99783.97;;;25.83;64.01
25869;BME280;13688;53.154;18.136;2023-07-29T15:50:43;99791.41;;;25.71;64.98
25869;BME280;13688;53.154;18.136;2023-07-29T15:56:06;99780.59;;;25.57;65.40
25869;BME280;13688;53.154;18.136;2023-07-29T16:01:32;99793.17;;;25.42;69.69
25869;BME280;13688;53.154;18.136;2023-07-29T16:06:55;99882.67;;;24.72;82.49
25869;BME280;13688;53.154;18.136;2023-07-29T16:12:17;99969.31;;;20.89;100.00
25869;BME280;13688;53.154;18.136;2023-07-29T16:17:40;99947.42;;;18.04;100.00
25869;BME280;13688;53.154;18.136;2023-07-29T16:23:04;99961.11;;;17.35;100.00
25869;BME280;13688;53.154;18.136;2023-07-29T16:28:27;99989.88;;;17.30;100.00
25869;BME280;13688;53.154;18.136;2023-07-29T16:33:51;99990.34;;;17.33;100.00
25869;BME280;13688;53.154;18.136;2023-07-29T16:39:14;99996.89;;;17.47;100.00
25869;BME280;13688;53.154;18.136;2023-07-29T16:44:36;99996.39;;;17.66;100.00
25869;BME280;13688;53.154;18.136;2023-07-29T16:49:59;99964.59;;;17.90;100.00
25869;BME280;13688;53.154;18.136;2023-07-29T16:55:23;99941.25;;;18.10;100.00
25869;BME280;13688;53.154;18.136;2023-07-29T17:00:47;99929.98;;;18.13;100.00
25869;BME280;13688;53.154;18.136;2023-07-29T17:06:12;99926.72;;;18.18;100.00
25869;BME280;13688;53.154;18.136;2023-07-29T17:11:35;99912.63;;;18.14;100.00
25869;BME280;13688;53.154;18.136;2023-07-29T17:17:00;99909.26;;;18.12;100.00
25869;BME280;13688;53.154;18.136;2023-07-29T17:22:23;99911.15;;;17.97;100.00
25869;BME280;13688;53.154;18.136;2023-07-29T17:27:48;99900.62;;;17.94;100.00
25869;BME280;13688;53.154;18.136;2023-07-29T17:33:14;99934.78;;;17.59;100.00
25869;BME280;13688;53.154;18.136;2023-07-29T17:38:40;99925.19;;;17.48;100.00
25869;BME280;13688;53.154;18.136;2023-07-29T17:44:04;100046.09;;;17.29;100.00
25869;BME280;13688;53.154;18.136;2023-07-29T17:49:27;100079.80;;;17.12;100.00
25869;BME280;13688;53.154;18.136;2023-07-29T17:54:50;100107.86;;;16.96;100.00
25869;BME280;13688;53.154;18.136;2023-07-29T18:00:13;100049.55;;;16.68;100.00
25869;BME280;13688;53.154;18.136;2023-07-29T18:05:37;100068.58;;;16.59;100.00
25869;BME280;13688;53.154;18.136;2023-07-29T18:11:02;100065.38;;;16.56;100.00
25869;BME280;13688;53.154;18.136;2023-07-29T18:16:27;100058.98;;;16.41;100.00
25869;BME280;13688;53.154;18.136;2023-07-29T18:21:51;100046.28;;;16.25;100.00
25869;BME280;13688;53.154;18.136;2023-07-29T18:27:14;100016.27;;;16.26;100.00
25869;BME280;13688;53.154;18.136;2023-07-29T18:32:39;100022.23;;;16.14;100.00
25869;BME280;13688;53.154;18.136;2023-07-29T18:38:02;100023.75;;;16.16;100.00
25869;BME280;13688;53.154;18.136;2023-07-29T18:43:26;100011.69;;;16.27;100.00
25869;BME280;13688;53.154;18.136;2023-07-29T18:48:54;100005.06;;;16.29;100.00
25869;BME280;13688;53.154;18.136;2023-07-29T18:54:20;99992.70;;;16.27;100.00
25869;BME280;13688;53.154;18.136;2023-07-29T18:59:45;99982.85;;;16.34;100.00
25869;BME280;13688;53.154;18.136;2023-07-29T19:05:09;99986.57;;;16.41;100.00
25869;BME280;13688;53.154;18.136;2023-07-29T19:10:32;100018.31;;;16.24;100.00
25869;BME280;13688;53.154;18.136;2023-07-29T19:15:58;99995.58;;;16.34;100.00
25869;BME280;13688;53.154;18.136;2023-07-29T19:21:23;99968.42;;;16.42;100.00
25869;BME280;13688;53.154;18.136;2023-07-29T19:26:46;99958.71;;;16.47;100.00
25869;BME280;13688;53.154;18.136;2023-07-29T19:32:11;99948.91;;;16.38;100.00
25869;BME280;13688;53.154;18.136;2023-07-29T19:37:33;99952.16;;;16.34;100.00
25869;BME280;13688;53.154;18.136;2023-07-29T19:43:00;99953.22;;;16.24;100.00
25869;BME280;13688;53.154;18.136;2023-07-29T19:48:22;99953.02;;;16.34;100.00
25869;BME280;13688;53.154;18.136;2023-07-29T19:53:44;99941.31;;;16.34;100.00
25869;BME280;13688;53.154;18.136;2023-07-29T19:59:07;99936.06;;;16.32;100.00
25869;BME280;13688;53.154;18.136;2023-07-29T20:04:31;99932.33;;;16.33;100.00
25869;BME280;13688;53.154;18.136;2023-07-29T20:09:55;99942.46;;;16.39;100.00
25869;BME280;13688;53.154;18.136;2023-07-29T20:15:17;99952.34;;;16.32;100.00
25869;BME280;13688;53.154;18.136;2023-07-29T20:20:39;99958.94;;;16.29;100.00
25869;BME280;13688;53.154;18.136;2023-07-29T20:26:03;99956.08;;;16.31;100.00
25869;BME280;13688;53.154;18.136;2023-07-29T20:31:25;99953.38;;;16.31;100.00
25869;BME280;13688;53.154;18.136;2023-07-29T20:36:49;99953.19;;;16.33;100.00
25869;BME280;13688;53.154;18.136;2023-07-29T20:42:11;99959.95;;;16.37;100.00
25869;BME280;13688;53.154;18.136;2023-07-29T20:47:34;99961.33;;;16.33;100.00
25869;BME280;13688;53.154;18.136;2023-07-29T20:52:57;99961.17;;;16.26;100.00
25869;BME280;13688;53.154;18.136;2023-07-29T20:58:20;99946.28;;;16.22;100.00
25869;BME280;13688;53.154;18.136;2023-07-29T21:03:44;99962.21;;;16.17;100.00
25869;BME280;13688;53.154;18.136;2023-07-29T21:09:08;99958.84;;;16.15;100.00
25869;BME280;13688;53.154;18.136;2023-07-29T21:14:31;99977.66;;;16.08;100.00
25869;BME280;13688;53.154;18.136;2023-07-29T21:19:53;99984.28;;;16.06;100.00
25869;BME280;13688;53.154;18.136;2023-07-29T21:25:16;99993.92;;;16.08;100.00
25869;BME280;13688;53.154;18.136;2023-07-29T21:30:38;99982.91;;;16.01;100.00
25869;BME280;13688;53.154;18.136;2023-07-29T21:36:01;99988.52;;;16.00;100.00
25869;BME280;13688;53.154;18.136;2023-07-29T21:41:24;100005.81;;;15.91;100.00
25869;BME280;13688;53.154;18.136;2023-07-29T21:46:47;99999.23;;;15.85;100.00
25869;BME280;13688;53.154;18.136;2023-07-29T21:52:09;100008.03;;;15.87;100.00
25869;BME280;13688;53.154;18.136;2023-07-29T21:57:33;100010.91;;;15.78;100.00
25869;BME280;13688;53.154;18.136;2023-07-29T22:02:56;100031.40;;;15.72;100.00
25869;BME280;13688;53.154;18.136;2023-07-29T22:08:18;100034.45;;;15.69;100.00
25869;BME280;13688;53.154;18.136;2023-07-29T22:13:41;100038.00;;;15.61;100.00
25869;BME280;13688;53.154;18.136;2023-07-29T22:19:04;100036.98;;;15.62;100.00
25869;BME280;13688;53.154;18.136;2023-07-29T22:24:27;100039.55;;;15.64;100.00
25869;BME280;13688;53.154;18.136;2023-07-29T22:29:51;100036.67;;;15.65;100.00
25869;BME280;13688;53.154;18.136;2023-07-29T22:35:14;100042.09;;;15.65;100.00
25869;BME280;13688;53.154;18.136;2023-07-29T22:40:36;100032.09;;;15.66;100.00
25869;BME280;13688;53.154;18.136;2023-07-29T22:46:02;100040.23;;;15.66;100.00
25869;BME280;13688;53.154;18.136;2023-07-29T22:51:25;100040.05;;;15.67;100.00
25869;BME280;13688;53.154;18.136;2023-07-29T22:56:48;100043.26;;;15.71;100.00
25869;BME280;13688;53.154;18.136;2023-07-29T23:02:11;100037.17;;;15.69;100.00
25869;BME280;13688;53.154;18.136;2023-07-29T23:07:33;100041.57;;;15.70;100.00
25869;BME280;13688;53.154;18.136;2023-07-29T23:12:56;100034.81;;;15.74;100.00
25869;BME280;13688;53.154;18.136;2023-07-29T23:18:19;100047.84;;;15.79;100.00
25869;BME280;13688;53.154;18.136;2023-07-29T23:23:42;100048.34;;;15.82;100.00
25869;BME280;13688;53.154;18.136;2023-07-29T23:29:04;100057.17;;;15.76;100.00
25869;BME280;13688;53.154;18.136;2023-07-29T23:34:27;100055.80;;;15.80;100.00
25869;BME280;13688;53.154;18.136;2023-07-29T23:39:49;100052.42;;;15.78;100.00
25869;BME280;13688;53.154;18.136;2023-07-29T23:45:12;100054.11;;;15.79;100.00
25869;BME280;13688;53.154;18.136;2023-07-29T23:50:35;100051.05;;;15.82;100.00
25869;BME280;13688;53.154;18.136;2023-07-29T23:55:58;100055.80;;;15.80;100.00
